Shannock, Rhode Island
Current Conditions -  °F | °C
As of 5:53 AM on Friday 19 Dec 2014 (Local Time) from KWST Reporting Station
Overcast Overcast  
Wind Chill: 29°   Ceiling: 4700
Heat Index: 34°   Visibility: 10mi
Dew Point: 25°   Wind: 6mph
Humidity: 70%   Direction: NA
Pressure: 29.93"   Gusts: NA
Location:  41.45°N, 71.64°W
Report Text: KWST 191053Z AUTO VRB05KT 10SM OVC047 01/M04 A2993 RMK AO2 SLP136 T00111039
Loading
Personal Weather Stations






























Interactive Weather Map New forecast layout! Learn more

10-Day Weather Forecast

Advertisements
Track Severe Weather on mobile